Seaspan Champion — VDPS — position and weather

sailwx.info

Track history (hours):
 
Tides and Currents Weather Stations Pressure Air Temp Water Temp Dewpoint Dewpoint Depression Visibility Wind Speed Wind Dir Waves Ship Positions

Seaspan Champion

Last reported at 2016-Nov-26 15:30 UTC. Time now 2016-Dec-05 10:39 UTC.
Position N 49°10' W 122°55'.
Warning: this ship's position is 8 days out of date.

Length 24 m; draft 5 m.

Type: Towing. MMSI: 316003661.

Date/timePositionNaut miles runAvg speedWind from/ knotsBaromVisibWave heightAir tempDewpointWater temp
2016-Nov-26 15:30N 49°10' W 122°55'2 1.7
2016-Nov-26 14:34N 49°09' W 122°58'3 3.1
2016-Nov-26 13:33N 49°09' W 123°02'4 3.7
2016-Nov-26 12:33N 49°07' W 123°07'3 3.2
2016-Nov-26 11:33N 49°07' W 123°12'4 4.4
2016-Nov-26 10:34N 49°06' W 123°18'3 2.8
2016-Nov-26 09:33N 49°09' W 123°19'3 2.6
2016-Nov-26 08:33N 49°11' W 123°19'3 2.5
2016-Nov-26 07:33N 49°14' W 123°18'2 2.2
2016-Nov-26 06:34N 49°16' W 123°20'4 4.2
2016-Nov-26 05:33N 49°18' W 123°26'5 4.8
2016-Nov-26 04:33N 49°20' W 123°32'4 3.7
2016-Nov-26 03:32N 49°21' W 123°38'4 4.1
2016-Nov-26 02:32N 49°23' W 123°44'1 0.0
2016-Nov-25 06:26N 49°23' W 123°42'6 6.6
2016-Nov-25 05:33N 49°20' W 123°34'6 6.1
2016-Nov-25 04:33N 49°18' W 123°25'6 5.6
2016-Nov-25 03:33N 49°16' W 123°17'5 4.5
2016-Nov-25 02:33N 49°11' W 123°19'5 5.4
2016-Nov-25 01:34N 49°06' W 123°19'6 5.9
2016-Nov-25 00:33N 49°07' W 123°10'6 5.9
2016-Nov-24 23:33N 49°09' W 123°02'3 2.9
2016-Nov-24 22:33N 49°09' W 122°57'0 0.0
2016-Nov-24 21:33N 49°09' W 122°57'0 0.0
2016-Nov-24 20:33N 49°09' W 122°57'0 0.0
2016-Nov-24 19:33N 49°09' W 122°57'0 0.0
2016-Nov-24 18:33N 49°09' W 122°57'0 0.0
2016-Nov-24 17:33N 49°09' W 122°57'0 0.0
2016-Nov-24 16:33N 49°09' W 122°57'0 0.0
2016-Nov-24 15:33N 49°09' W 122°57'0 0.0
2016-Nov-24 14:33N 49°09' W 122°57'0 0.0
2016-Nov-24 13:33N 49°09' W 122°57'0 0.0
2016-Nov-24 12:33N 49°09' W 122°57'0 0.0
2016-Nov-24 11:33N 49°09' W 122°57'0 0.0
2016-Nov-24 10:33N 49°09' W 122°57'0 0.0
2016-Nov-24 09:33N 49°09' W 122°57'0 0.0
2016-Nov-24 08:33N 49°09' W 122°57'0 0.0
2016-Nov-24 07:33N 49°09' W 122°57'7 6.5
2016-Nov-24 06:33N 49°07' W 123°06'3 3.4
2016-Nov-24 05:33N 49°07' W 123°11'0 0.0
2016-Nov-24 04:33N 49°07' W 123°11'0 0.0
2016-Nov-24 03:34N 49°07' W 123°11'1110.8
2016-Nov-24 02:33N 49°10' W 122°55'1 1.3
2016-Nov-24 01:33N 49°11' W 122°55'2 1.6
2016-Nov-24 00:34N 49°10' W 122°56'5 4.9
2016-Nov-23 23:33N 49°08' W 123°03'5 5.0
2016-Nov-23 22:33N 49°07' W 123°10'5 5.2
2016-Nov-23 21:33N 49°06' W 123°18'4 4.1
2016-Nov-23 20:33N 49°10' W 123°18'5 4.8
2016-Nov-23 19:33N 49°15' W 123°18'2 1.8
2016-Nov-23 18:33N 49°16' W 123°20'5 4.6
2016-Nov-23 17:33N 49°18' W 123°27'4 4.1
2016-Nov-23 16:33N 49°20' W 123°33'4 4.0
2016-Nov-23 15:33N 49°21' W 123°38'4 3.9
2016-Nov-23 14:33N 49°23' W 123°44'4 3.8
2016-Nov-23 13:33N 49°24' W 123°49'4 3.8
2016-Nov-23 12:33N 49°26' W 123°54'4 3.6
2016-Nov-23 11:33N 49°27' W 123°59'4 3.5
2016-Nov-23 10:33N 49°29' W 124°04'4 4.3
2016-Nov-23 09:31N 49°33' W 124°08'6 5.7
2016-Nov-23 08:33N 49°37' W 124°14'4 4.5
2016-Nov-23 07:33N 49°41' W 124°18'4 3.9
2016-Nov-23 06:33N 49°43' W 124°22'11 3.7
2016-Nov-23 03:27N 49°52' W 124°34'0 0.4
2016-Nov-23 02:16N 49°52' W 124°33'9 5.0
2016-Nov-23 00:31N 49°45' W 124°25'6 6.5
2016-Nov-22 23:33N 49°41' W 124°17'6 6.2
2016-Nov-22 22:33N 49°37' W 124°09'12 5.8
2016-Nov-22 20:33N 49°29' W 123°56'6 5.9
2016-Nov-22 19:33N 49°26' W 123°49'12 5.8
2016-Nov-22 17:34N 49°22' W 123°32'3 3.4
2016-Nov-22 16:33N 49°23' W 123°27'2 2.3
2016-Nov-22 15:33N 49°25' W 123°25'3 3.4
2016-Nov-22 14:33N 49°26' W 123°20'2 2.2
2016-Nov-22 13:33N 49°25' W 123°17'5 1.7
2016-Nov-22 10:33N 49°25' W 123°24'2 2.1
2016-Nov-22 09:33N 49°23' W 123°26'1 0.7
2016-Nov-22 08:33N 49°23' W 123°27'1 0.9
2016-Nov-22 07:33N 49°23' W 123°28'4 1.9
2016-Nov-22 05:33N 49°19' W 123°27'5 5.1
2016-Nov-22 04:33N 49°17' W 123°20'4 3.6
2016-Nov-22 03:33N 49°14' W 123°18'0 0.4
2016-Nov-22 02:33N 49°14' W 123°18'11 3.8
2016-Nov-21 23:33N 49°08' W 123°03'3 1.7
2016-Nov-21 21:34N 49°09' W 122°58'27 6.7
2016-Nov-21 17:34N 49°00' W 123°37'7 2.2
2016-Nov-21 14:18N 48°53' W 123°37'5 2.7
2016-Nov-21 12:25N 48°58' W 123°37'3 3.5
2016-Nov-21 11:33N 49°01' W 123°35'2 2.4
2016-Nov-21 10:33N 49°03' W 123°32'9 4.3
2016-Nov-21 08:33N 49°06' W 123°20'6 6.4
2016-Nov-21 07:34N 49°07' W 123°11'9 4.5
2016-Nov-21 05:33N 49°09' W 122°57'2 1.5
2016-Nov-21 04:33N 49°10' W 122°55'0 0.0
2016-Nov-21 02:33N 49°10' W 122°55'0 0.0
2016-Nov-21 00:33N 49°10' W 122°55'0 0.0
2016-Nov-20 22:33N 49°10' W 122°55'0 0.0
2016-Nov-20 21:33N 49°10' W 122°55'0 0.0
2016-Nov-20 17:33N 49°10' W 122°55'0 0.0
2016-Nov-20 16:33N 49°10' W 122°55'1 0.6
2016-Nov-20 14:34N 49°09' W 122°57'3 3.0
2016-Nov-20 13:33N 49°09' W 123°02'3 3.4
2016-Nov-20 12:33N 49°07' W 123°06'9 3.0
2016-Nov-20 09:33N 49°07' W 123°19'5 5.0
2016-Nov-20 08:33N 49°12' W 123°19'3 3.5
2016-Nov-20 07:33N 49°16' W 123°19'6 6.3
2016-Nov-20 06:33N 49°18' W 123°28'7 6.8
2016-Nov-20 05:33N 49°21' W 123°38'6 5.6
2016-Nov-20 04:33N 49°23' W 123°46'5 5.5
2016-Nov-20 03:33N 49°25' W 123°54'12 5.9
2016-Nov-20 01:33N 49°33' W 124°06'13 6.3
2016-Nov-19 23:32N 49°43' W 124°19'6 5.8
2016-Nov-19 22:26N 49°46' W 124°27'7 3.8
2016-Nov-19 20:33N 49°52' W 124°34'4 3.4
2016-Nov-19 19:30N 49°49' W 124°33'10 5.4
2016-Nov-19 17:33N 49°42' W 124°19'5 5.3
2016-Nov-19 16:33N 49°38' W 124°14'11 5.4
2016-Nov-19 14:33N 49°30' W 124°03'18 5.9
2016-Nov-19 11:33N 49°22' W 123°39'10 4.9
2016-Nov-19 09:33N 49°18' W 123°26'6 3.0
2016-Nov-19 07:34N 49°15' W 123°18'7 3.6
2016-Nov-19 05:33N 49°18' W 123°27'6 5.9
2016-Nov-19 04:33N 49°21' W 123°35'6 6.2
2016-Nov-19 03:33N 49°23' W 123°44'6 6.1
2016-Nov-19 02:33N 49°25' W 123°53'7 6.9
2016-Nov-19 01:33N 49°28' W 124°03'7 7.1
2016-Nov-19 00:33N 49°34' W 124°10'7 7.2
2016-Nov-18 23:33N 49°39' W 124°17'17 5.3
2016-Nov-18 20:21N 49°52' W 124°34'8 3.8
2016-Nov-18 18:19N 49°46' W 124°27'4 5.0
2016-Nov-18 17:33N 49°44' W 124°22'14 4.8
2016-Nov-18 14:33N 49°33' W 124°08'11 5.4
2016-Nov-18 12:33N 49°26' W 123°55'5 5.4
2016-Nov-18 11:33N 49°24' W 123°48'11 5.4
2016-Nov-18 09:33N 49°20' W 123°32'9 4.4
2016-Nov-18 07:33N 49°17' W 123°20'8 3.8
2016-Nov-18 05:33N 49°10' W 123°19'3 3.1
2016-Nov-18 04:33N 49°07' W 123°17'13 4.2
2016-Nov-18 01:33N 49°09' W 122°59'7 6.7
2016-Nov-18 00:33N 49°06' W 123°08'5 5.5
2016-Nov-17 23:33N 49°07' W 123°16'6 6.1
2016-Nov-17 22:33N 49°05' W 123°24'8 8.1
2016-Nov-17 21:32N 49°01' W 123°36'7 3.0
2016-Nov-17 19:06N 48°53' W 123°37'4 6.9
2016-Nov-17 18:30N 48°56' W 123°43'7 1.7
2016-Nov-17 14:33N 49°01' W 123°35'3 3.1
2016-Nov-17 13:33N 49°03' W 123°32'3 2.7
2016-Nov-17 12:33N 49°05' W 123°29'3 3.2
2016-Nov-17 11:33N 49°06' W 123°25'15 4.9
2016-Nov-17 08:33N 49°09' W 123°02'3 1.5
2016-Nov-17 06:33N 49°09' W 122°58'0 0.1
2016-Nov-17 02:33N 49°10' W 122°57'6 2.1
2016-Nov-16 23:33N 49°07' W 123°06'4 4.3
2016-Nov-16 22:33N 49°07' W 123°12'9 4.6
2016-Nov-16 20:33N 49°04' W 123°25'7 6.7
2016-Nov-16 19:30N 49°01' W 123°35'9 2.8
2016-Nov-16 16:20N 48°53' W 123°38'  
Track history (hours):
 
Tides and Currents Weather Stations Pressure Air Temp Water Temp Dewpoint Dewpoint Depression Visibility Wind Speed Wind Dir Waves Ship Positions

Seaspan Champion

Last reported at 2016-Nov-26 15:30 UTC. Time now 2016-Dec-05 10:39 UTC.
Position N 49°10' W 122°55'.
Warning: this ship's position is 8 days out of date.

Length 24 m; draft 5 m.

Type: Towing. MMSI: 316003661.

Date/timePositionNaut miles runAvg speedWind from/ knotsBaromVisibWave heightAir tempDewpointWater temp
2016-Nov-26 15:30N 49°10' W 122°55'2 1.7
2016-Nov-26 14:34N 49°09' W 122°58'3 3.1
2016-Nov-26 13:33N 49°09' W 123°02'4 3.7
2016-Nov-26 12:33N 49°07' W 123°07'3 3.2
2016-Nov-26 11:33N 49°07' W 123°12'4 4.4
2016-Nov-26 10:34N 49°06' W 123°18'3 2.8
2016-Nov-26 09:33N 49°09' W 123°19'3 2.6
2016-Nov-26 08:33N 49°11' W 123°19'3 2.5
2016-Nov-26 07:33N 49°14' W 123°18'2 2.2
2016-Nov-26 06:34N 49°16' W 123°20'4 4.2
2016-Nov-26 05:33N 49°18' W 123°26'5 4.8
2016-Nov-26 04:33N 49°20' W 123°32'4 3.7
2016-Nov-26 03:32N 49°21' W 123°38'4 4.1
2016-Nov-26 02:32N 49°23' W 123°44'1 0.0
2016-Nov-25 06:26N 49°23' W 123°42'6 6.6
2016-Nov-25 05:33N 49°20' W 123°34'6 6.1
2016-Nov-25 04:33N 49°18' W 123°25'6 5.6
2016-Nov-25 03:33N 49°16' W 123°17'5 4.5
2016-Nov-25 02:33N 49°11' W 123°19'5 5.4
2016-Nov-25 01:34N 49°06' W 123°19'6 5.9
2016-Nov-25 00:33N 49°07' W 123°10'6 5.9
2016-Nov-24 23:33N 49°09' W 123°02'3 2.9
2016-Nov-24 22:33N 49°09' W 122°57'0 0.0
2016-Nov-24 21:33N 49°09' W 122°57'0 0.0
2016-Nov-24 20:33N 49°09' W 122°57'0 0.0
2016-Nov-24 19:33N 49°09' W 122°57'0 0.0
2016-Nov-24 18:33N 49°09' W 122°57'0 0.0
2016-Nov-24 17:33N 49°09' W 122°57'0 0.0
2016-Nov-24 16:33N 49°09' W 122°57'0 0.0
2016-Nov-24 15:33N 49°09' W 122°57'0 0.0
2016-Nov-24 14:33N 49°09' W 122°57'0 0.0
2016-Nov-24 13:33N 49°09' W 122°57'0 0.0
2016-Nov-24 12:33N 49°09' W 122°57'0 0.0
2016-Nov-24 11:33N 49°09' W 122°57'0 0.0
2016-Nov-24 10:33N 49°09' W 122°57'0 0.0
2016-Nov-24 09:33N 49°09' W 122°57'0 0.0
2016-Nov-24 08:33N 49°09' W 122°57'0 0.0
2016-Nov-24 07:33N 49°09' W 122°57'7 6.5
2016-Nov-24 06:33N 49°07' W 123°06'3 3.4
2016-Nov-24 05:33N 49°07' W 123°11'0 0.0
2016-Nov-24 04:33N 49°07' W 123°11'0 0.0
2016-Nov-24 03:34N 49°07' W 123°11'1110.8
2016-Nov-24 02:33N 49°10' W 122°55'1 1.3
2016-Nov-24 01:33N 49°11' W 122°55'2 1.6
2016-Nov-24 00:34N 49°10' W 122°56'5 4.9
2016-Nov-23 23:33N 49°08' W 123°03'5 5.0
2016-Nov-23 22:33N 49°07' W 123°10'5 5.2
2016-Nov-23 21:33N 49°06' W 123°18'4 4.1
2016-Nov-23 20:33N 49°10' W 123°18'5 4.8
2016-Nov-23 19:33N 49°15' W 123°18'2 1.8
2016-Nov-23 18:33N 49°16' W 123°20'5 4.6
2016-Nov-23 17:33N 49°18' W 123°27'4 4.1
2016-Nov-23 16:33N 49°20' W 123°33'4 4.0
2016-Nov-23 15:33N 49°21' W 123°38'4 3.9
2016-Nov-23 14:33N 49°23' W 123°44'4 3.8
2016-Nov-23 13:33N 49°24' W 123°49'4 3.8
2016-Nov-23 12:33N 49°26' W 123°54'4 3.6
2016-Nov-23 11:33N 49°27' W 123°59'4 3.5
2016-Nov-23 10:33N 49°29' W 124°04'4 4.3
2016-Nov-23 09:31N 49°33' W 124°08'6 5.7
2016-Nov-23 08:33N 49°37' W 124°14'4 4.5
2016-Nov-23 07:33N 49°41' W 124°18'4 3.9
2016-Nov-23 06:33N 49°43' W 124°22'11 3.7
2016-Nov-23 03:27N 49°52' W 124°34'0 0.4
2016-Nov-23 02:16N 49°52' W 124°33'9 5.0
2016-Nov-23 00:31N 49°45' W 124°25'6 6.5
2016-Nov-22 23:33N 49°41' W 124°17'6 6.2
2016-Nov-22 22:33N 49°37' W 124°09'12 5.8
2016-Nov-22 20:33N 49°29' W 123°56'6 5.9
2016-Nov-22 19:33N 49°26' W 123°49'12 5.8
2016-Nov-22 17:34N 49°22' W 123°32'3 3.4
2016-Nov-22 16:33N 49°23' W 123°27'2 2.3
2016-Nov-22 15:33N 49°25' W 123°25'3 3.4
2016-Nov-22 14:33N 49°26' W 123°20'2 2.2
2016-Nov-22 13:33N 49°25' W 123°17'5 1.7
2016-Nov-22 10:33N 49°25' W 123°24'2 2.1
2016-Nov-22 09:33N 49°23' W 123°26'1 0.7
2016-Nov-22 08:33N 49°23' W 123°27'1 0.9
2016-Nov-22 07:33N 49°23' W 123°28'4 1.9
2016-Nov-22 05:33N 49°19' W 123°27'5 5.1
2016-Nov-22 04:33N 49°17' W 123°20'4 3.6
2016-Nov-22 03:33N 49°14' W 123°18'0 0.4
2016-Nov-22 02:33N 49°14' W 123°18'11 3.8
2016-Nov-21 23:33N 49°08' W 123°03'3 1.7
2016-Nov-21 21:34N 49°09' W 122°58'27 6.7
2016-Nov-21 17:34N 49°00' W 123°37'7 2.2
2016-Nov-21 14:18N 48°53' W 123°37'5 2.7
2016-Nov-21 12:25N 48°58' W 123°37'3 3.5
2016-Nov-21 11:33N 49°01' W 123°35'2 2.4
2016-Nov-21 10:33N 49°03' W 123°32'9 4.3
2016-Nov-21 08:33N 49°06' W 123°20'6 6.4
2016-Nov-21 07:34N 49°07' W 123°11'9 4.5
2016-Nov-21 05:33N 49°09' W 122°57'2 1.5
2016-Nov-21 04:33N 49°10' W 122°55'0 0.0
2016-Nov-21 02:33N 49°10' W 122°55'0 0.0
2016-Nov-21 00:33N 49°10' W 122°55'0 0.0
2016-Nov-20 22:33N 49°10' W 122°55'0 0.0
2016-Nov-20 21:33N 49°10' W 122°55'0 0.0
2016-Nov-20 17:33N 49°10' W 122°55'0 0.0
2016-Nov-20 16:33N 49°10' W 122°55'1 0.6
2016-Nov-20 14:34N 49°09' W 122°57'3 3.0
2016-Nov-20 13:33N 49°09' W 123°02'3 3.4
2016-Nov-20 12:33N 49°07' W 123°06'9 3.0
2016-Nov-20 09:33N 49°07' W 123°19'5 5.0
2016-Nov-20 08:33N 49°12' W 123°19'3 3.5
2016-Nov-20 07:33N 49°16' W 123°19'6 6.3
2016-Nov-20 06:33N 49°18' W 123°28'7 6.8
2016-Nov-20 05:33N 49°21' W 123°38'6 5.6
2016-Nov-20 04:33N 49°23' W 123°46'5 5.5
2016-Nov-20 03:33N 49°25' W 123°54'12 5.9
2016-Nov-20 01:33N 49°33' W 124°06'13 6.3
2016-Nov-19 23:32N 49°43' W 124°19'6 5.8
2016-Nov-19 22:26N 49°46' W 124°27'7 3.8
2016-Nov-19 20:33N 49°52' W 124°34'4 3.4
2016-Nov-19 19:30N 49°49' W 124°33'10 5.4
2016-Nov-19 17:33N 49°42' W 124°19'5 5.3
2016-Nov-19 16:33N 49°38' W 124°14'11 5.4
2016-Nov-19 14:33N 49°30' W 124°03'18 5.9
2016-Nov-19 11:33N 49°22' W 123°39'10 4.9
2016-Nov-19 09:33N 49°18' W 123°26'6 3.0
2016-Nov-19 07:34N 49°15' W 123°18'7 3.6
2016-Nov-19 05:33N 49°18' W 123°27'6 5.9
2016-Nov-19 04:33N 49°21' W 123°35'6 6.2
2016-Nov-19 03:33N 49°23' W 123°44'6 6.1
2016-Nov-19 02:33N 49°25' W 123°53'7 6.9
2016-Nov-19 01:33N 49°28' W 124°03'7 7.1
2016-Nov-19 00:33N 49°34' W 124°10'7 7.2
2016-Nov-18 23:33N 49°39' W 124°17'17 5.3
2016-Nov-18 20:21N 49°52' W 124°34'8 3.8
2016-Nov-18 18:19N 49°46' W 124°27'4 5.0
2016-Nov-18 17:33N 49°44' W 124°22'14 4.8
2016-Nov-18 14:33N 49°33' W 124°08'11 5.4
2016-Nov-18 12:33N 49°26' W 123°55'5 5.4
2016-Nov-18 11:33N 49°24' W 123°48'11 5.4
2016-Nov-18 09:33N 49°20' W 123°32'9 4.4
2016-Nov-18 07:33N 49°17' W 123°20'8 3.8
2016-Nov-18 05:33N 49°10' W 123°19'3 3.1
2016-Nov-18 04:33N 49°07' W 123°17'13 4.2
2016-Nov-18 01:33N 49°09' W 122°59'7 6.7
2016-Nov-18 00:33N 49°06' W 123°08'5 5.5
2016-Nov-17 23:33N 49°07' W 123°16'6 6.1
2016-Nov-17 22:33N 49°05' W 123°24'8 8.1
2016-Nov-17 21:32N 49°01' W 123°36'7 3.0
2016-Nov-17 19:06N 48°53' W 123°37'4 6.9
2016-Nov-17 18:30N 48°56' W 123°43'7 1.7
2016-Nov-17 14:33N 49°01' W 123°35'3 3.1
2016-Nov-17 13:33N 49°03' W 123°32'3 2.7
2016-Nov-17 12:33N 49°05' W 123°29'3 3.2
2016-Nov-17 11:33N 49°06' W 123°25'15 4.9
2016-Nov-17 08:33N 49°09' W 123°02'3 1.5
2016-Nov-17 06:33N 49°09' W 122°58'0 0.1
2016-Nov-17 02:33N 49°10' W 122°57'6 2.1
2016-Nov-16 23:33N 49°07' W 123°06'4 4.3
2016-Nov-16 22:33N 49°07' W 123°12'9 4.6
2016-Nov-16 20:33N 49°04' W 123°25'7 6.7
2016-Nov-16 19:30N 49°01' W 123°35'9 2.8
2016-Nov-16 16:20N 48°53' W 123°38'  

Dump ship's entire track history